sensor_id;sensor_type;location;lat;lon;timestamp;temperature;humidity
48860;DHT22;34679;51.436;-2.518;2022-08-26T00:01:38;13.70;99.90
48860;DHT22;34679;51.436;-2.518;2022-08-26T00:04:06;13.70;99.90
48860;DHT22;34679;51.436;-2.518;2022-08-26T00:06:32;13.60;99.90
48860;DHT22;34679;51.436;-2.518;2022-08-26T00:08:58;13.60;99.90
48860;DHT22;34679;51.436;-2.518;2022-08-26T00:11:25;13.60;99.90
48860;DHT22;34679;51.436;-2.518;2022-08-26T00:13:50;13.50;99.90
48860;DHT22;34679;51.436;-2.518;2022-08-26T00:16:16;13.50;99.90
48860;DHT22;34679;51.436;-2.518;2022-08-26T00:18:42;13.50;99.90
48860;DHT22;34679;51.436;-2.518;2022-08-26T00:21:08;13.40;99.90
48860;DHT22;34679;51.436;-2.518;2022-08-26T00:23:35;13.40;99.90
48860;DHT22;34679;51.436;-2.518;2022-08-26T00:26:02;13.30;99.90
48860;DHT22;34679;51.436;-2.518;2022-08-26T00:28:28;13.30;99.90
48860;DHT22;34679;51.436;-2.518;2022-08-26T00:30:54;13.30;99.90
48860;DHT22;34679;51.436;-2.518;2022-08-26T00:33:20;13.20;99.90
48860;DHT22;34679;51.436;-2.518;2022-08-26T00:35:46;13.20;99.90
48860;DHT22;34679;51.436;-2.518;2022-08-26T00:38:12;13.10;99.90
48860;DHT22;34679;51.436;-2.518;2022-08-26T00:40:43;13.10;99.90
48860;DHT22;34679;51.436;-2.518;2022-08-26T00:43:10;13.00;99.90
48860;DHT22;34679;51.436;-2.518;2022-08-26T00:45:44;13.10;99.90
48860;DHT22;34679;51.436;-2.518;2022-08-26T00:48:10;13.00;99.90
48860;DHT22;34679;51.436;-2.518;2022-08-26T00:50:41;13.00;99.90
48860;DHT22;34679;51.436;-2.518;2022-08-26T00:53:14;13.00;99.90
48860;DHT22;34679;51.436;-2.518;2022-08-26T00:56:09;13.00;99.90
48860;DHT22;34679;51.436;-2.518;2022-08-26T00:58:37;12.90;99.90
48860;DHT22;34679;51.436;-2.518;2022-08-26T01:01:08;13.00;99.90
48860;DHT22;34679;51.436;-2.518;2022-08-26T01:03:34;13.10;99.90
48860;DHT22;34679;51.436;-2.518;2022-08-26T01:06:01;12.90;99.90
48860;DHT22;34679;51.436;-2.518;2022-08-26T01:08:28;12.80;99.90
48860;DHT22;34679;51.436;-2.518;2022-08-26T01:10:54;12.70;99.90
48860;DHT22;34679;51.436;-2.518;2022-08-26T01:13:22;12.70;99.90
48860;DHT22;34679;51.436;-2.518;2022-08-26T01:15:54;12.60;99.90
48860;DHT22;34679;51.436;-2.518;2022-08-26T01:18:20;12.50;99.90
48860;DHT22;34679;51.436;-2.518;2022-08-26T01:21:02;12.60;99.90
48860;DHT22;34679;51.436;-2.518;2022-08-26T01:23:33;12.60;99.90
48860;DHT22;34679;51.436;-2.518;2022-08-26T01:26:05;12.50;99.90
48860;DHT22;34679;51.436;-2.518;2022-08-26T01:28:33;12.50;99.90
48860;DHT22;34679;51.436;-2.518;2022-08-26T01:31:01;12.50;99.90
48860;DHT22;34679;51.436;-2.518;2022-08-26T01:34:02;12.50;99.90
48860;DHT22;34679;51.436;-2.518;2022-08-26T01:36:29;12.40;99.90
48860;DHT22;34679;51.436;-2.518;2022-08-26T01:38:55;12.40;99.90
48860;DHT22;34679;51.436;-2.518;2022-08-26T01:41:21;12.40;99.90
48860;DHT22;34679;51.436;-2.518;2022-08-26T01:43:52;12.30;99.90
48860;DHT22;34679;51.436;-2.518;2022-08-26T01:46:19;12.30;99.90
48860;DHT22;34679;51.436;-2.518;2022-08-26T01:48:48;12.40;99.90
48860;DHT22;34679;51.436;-2.518;2022-08-26T01:51:16;12.40;99.90
48860;DHT22;34679;51.436;-2.518;2022-08-26T01:53:43;12.40;99.90
48860;DHT22;34679;51.436;-2.518;2022-08-26T01:56:09;12.30;99.90
48860;DHT22;34679;51.436;-2.518;2022-08-26T01:58:49;12.30;99.90
48860;DHT22;34679;51.436;-2.518;2022-08-26T02:01:16;12.20;99.90
48860;DHT22;34679;51.436;-2.518;2022-08-26T02:03:50;12.20;99.90
48860;DHT22;34679;51.436;-2.518;2022-08-26T02:06:18;12.20;99.90
48860;DHT22;34679;51.436;-2.518;2022-08-26T02:08:47;12.10;99.90
48860;DHT22;34679;51.436;-2.518;2022-08-26T02:11:13;12.00;99.90
48860;DHT22;34679;51.436;-2.518;2022-08-26T02:13:52;12.00;99.90
48860;DHT22;34679;51.436;-2.518;2022-08-26T03:31:55;11.20;99.90
48860;DHT22;34679;51.436;-2.518;2022-08-26T03:34:21;11.20;99.90
48860;DHT22;34679;51.436;-2.518;2022-08-26T03:48:52;11.00;99.90
48860;DHT22;34679;51.436;-2.518;2022-08-26T03:51:18;11.00;99.90
48860;DHT22;34679;51.436;-2.518;2022-08-26T04:20:36;10.80;99.90
48860;DHT22;34679;51.436;-2.518;2022-08-26T04:23:02;10.70;99.90
48860;DHT22;34679;51.436;-2.518;2022-08-26T04:25:27;10.70;99.90
48860;DHT22;34679;51.436;-2.518;2022-08-26T04:27:53;10.70;99.90
48860;DHT22;34679;51.436;-2.518;2022-08-26T04:30:19;10.70;99.90
48860;DHT22;34679;51.436;-2.518;2022-08-26T04:32:45;10.70;99.90
48860;DHT22;34679;51.436;-2.518;2022-08-26T04:35:11;10.70;99.90
48860;DHT22;34679;51.436;-2.518;2022-08-26T04:37:37;10.60;99.90
48860;DHT22;34679;51.436;-2.518;2022-08-26T04:40:04;10.60;99.90
48860;DHT22;34679;51.436;-2.518;2022-08-26T04:42:31;10.50;99.90
48860;DHT22;34679;51.436;-2.518;2022-08-26T04:44:57;10.50;99.90
48860;DHT22;34679;51.436;-2.518;2022-08-26T04:47:23;10.50;99.90
48860;DHT22;34679;51.436;-2.518;2022-08-26T04:49:51;10.50;99.90
48860;DHT22;34679;51.436;-2.518;2022-08-26T04:52:18;10.40;99.90
48860;DHT22;34679;51.436;-2.518;2022-08-26T04:54:44;10.40;99.90
48860;DHT22;34679;51.436;-2.518;2022-08-26T04:57:10;10.40;99.90
48860;DHT22;34679;51.436;-2.518;2022-08-26T04:59:36;10.40;99.90
48860;DHT22;34679;51.436;-2.518;2022-08-26T05:02:01;10.40;99.90
48860;DHT22;34679;51.436;-2.518;2022-08-26T05:04:28;10.30;99.90
48860;DHT22;34679;51.436;-2.518;2022-08-26T05:06:54;10.30;99.90
48860;DHT22;34679;51.436;-2.518;2022-08-26T05:09:20;10.30;99.90
48860;DHT22;34679;51.436;-2.518;2022-08-26T05:11:47;10.30;99.90
48860;DHT22;34679;51.436;-2.518;2022-08-26T05:14:13;10.30;99.90
48860;DHT22;34679;51.436;-2.518;2022-08-26T05:16:38;10.30;99.90
48860;DHT22;34679;51.436;-2.518;2022-08-26T06:53:09;24.50;99.90
48860;DHT22;34679;51.436;-2.518;2022-08-26T06:55:44;24.40;99.90
48860;DHT22;34679;51.436;-2.518;2022-08-26T07:07:26;25.20;99.40
48860;DHT22;34679;51.436;-2.518;2022-08-26T07:15:45;26.00;98.90
48860;DHT22;34679;51.436;-2.518;2022-08-26T07:18:10;26.20;98.80
48860;DHT22;34679;51.436;-2.518;2022-08-26T07:20:39;25.80;99.00
48860;DHT22;34679;51.436;-2.518;2022-08-26T07:23:07;26.00;98.70
48860;DHT22;34679;51.436;-2.518;2022-08-26T07:25:36;26.10;98.60
48860;DHT22;34679;51.436;-2.518;2022-08-26T07:28:02;26.20;98.40
48860;DHT22;34679;51.436;-2.518;2022-08-26T07:30:28;27.10;97.70
48860;DHT22;34679;51.436;-2.518;2022-08-26T07:32:57;27.40;97.30
48860;DHT22;34679;51.436;-2.518;2022-08-26T07:35:24;28.20;96.60
48860;DHT22;34679;51.436;-2.518;2022-08-26T07:37:50;27.70;96.70
48860;DHT22;34679;51.436;-2.518;2022-08-26T07:40:16;27.60;96.80
48860;DHT22;34679;51.436;-2.518;2022-08-26T07:42:42;27.40;97.00
48860;DHT22;34679;51.436;-2.518;2022-08-26T07:45:08;27.80;96.30
48860;DHT22;34679;51.436;-2.518;2022-08-26T07:47:34;27.80;96.60
48860;DHT22;34679;51.436;-2.518;2022-08-26T07:50:00;28.10;95.90
48860;DHT22;34679;51.436;-2.518;2022-08-26T07:52:28;27.80;96.10
48860;DHT22;34679;51.436;-2.518;2022-08-26T07:54:56;28.50;96.00
48860;DHT22;34679;51.436;-2.518;2022-08-26T07:57:23;29.20;94.90
48860;DHT22;34679;51.436;-2.518;2022-08-26T07:59:49;29.50;94.30
48860;DHT22;34679;51.436;-2.518;2022-08-26T08:02:15;29.10;94.10
48860;DHT22;34679;51.436;-2.518;2022-08-26T08:04:40;29.20;94.10
48860;DHT22;34679;51.436;-2.518;2022-08-26T08:07:06;28.90;93.80
48860;DHT22;34679;51.436;-2.518;2022-08-26T08:09:32;29.30;93.70
48860;DHT22;34679;51.436;-2.518;2022-08-26T08:11:57;29.60;93.50
48860;DHT22;34679;51.436;-2.518;2022-08-26T08:14:23;29.80;93.60
48860;DHT22;34679;51.436;-2.518;2022-08-26T08:16:49;30.20;93.00
48860;DHT22;34679;51.436;-2.518;2022-08-26T08:19:15;29.90;93.30
48860;DHT22;34679;51.436;-2.518;2022-08-26T08:21:42;29.80;93.30
48860;DHT22;34679;51.436;-2.518;2022-08-26T08:24:07;29.90;92.40
48860;DHT22;34679;51.436;-2.518;2022-08-26T08:26:38;29.60;92.80
48860;DHT22;34679;51.436;-2.518;2022-08-26T08:29:04;29.80;92.70
48860;DHT22;34679;51.436;-2.518;2022-08-26T08:31:32;29.60;92.90
48860;DHT22;34679;51.436;-2.518;2022-08-26T08:33:58;29.50;92.90
48860;DHT22;34679;51.436;-2.518;2022-08-26T08:36:23;29.00;93.20
48860;DHT22;34679;51.436;-2.518;2022-08-26T08:38:49;28.70;93.50
48860;DHT22;34679;51.436;-2.518;2022-08-26T08:41:36;28.40;94.00
48860;DHT22;34679;51.436;-2.518;2022-08-26T08:44:18;29.70;93.30
48860;DHT22;34679;51.436;-2.518;2022-08-26T08:46:48;30.90;92.70
48860;DHT22;34679;51.436;-2.518;2022-08-26T08:49:15;31.50;91.80
48860;DHT22;34679;51.436;-2.518;2022-08-26T08:51:53;31.60;91.40
48860;DHT22;34679;51.436;-2.518;2022-08-26T08:54:23;30.20;91.80
48860;DHT22;34679;51.436;-2.518;2022-08-26T08:57:00;29.30;92.40
48860;DHT22;34679;51.436;-2.518;2022-08-26T08:59:31;28.90;92.80
48860;DHT22;34679;51.436;-2.518;2022-08-26T09:07:17;29.60;93.10
48860;DHT22;34679;51.436;-2.518;2022-08-26T09:09:53;29.20;93.20
48860;DHT22;34679;51.436;-2.518;2022-08-26T09:12:28;29.40;93.40
48860;DHT22;34679;51.436;-2.518;2022-08-26T09:15:22;28.70;93.50
48860;DHT22;34679;51.436;-2.518;2022-08-26T09:22:57;29.20;93.80
48860;DHT22;34679;51.436;-2.518;2022-08-26T09:25:23;29.70;92.90
48860;DHT22;34679;51.436;-2.518;2022-08-26T09:27:51;30.00;92.70
48860;DHT22;34679;51.436;-2.518;2022-08-26T09:30:27;29.60;92.50
48860;DHT22;34679;51.436;-2.518;2022-08-26T09:33:05;28.70;93.20
48860;DHT22;34679;51.436;-2.518;2022-08-26T09:35:33;27.60;94.60
48860;DHT22;34679;51.436;-2.518;2022-08-26T09:38:01;26.60;95.30
48860;DHT22;34679;51.436;-2.518;2022-08-26T09:40:32;25.00;96.90
48860;DHT22;34679;51.436;-2.518;2022-08-26T09:43:16;24.80;96.80
48860;DHT22;34679;51.436;-2.518;2022-08-26T09:45:46;24.80;96.90
48860;DHT22;34679;51.436;-2.518;2022-08-26T09:48:25;24.80;96.50
48860;DHT22;34679;51.436;-2.518;2022-08-26T09:50:52;24.70;97.20
48860;DHT22;34679;51.436;-2.518;2022-08-26T09:53:21;25.00;97.00
48860;DHT22;34679;51.436;-2.518;2022-08-26T09:55:49;24.90;97.30
48860;DHT22;34679;51.436;-2.518;2022-08-26T09:58:37;25.20;97.00
48860;DHT22;34679;51.436;-2.518;2022-08-26T10:01:06;25.50;97.00
48860;DHT22;34679;51.436;-2.518;2022-08-26T10:03:35;25.80;96.70
48860;DHT22;34679;51.436;-2.518;2022-08-26T10:06:03;26.00;96.40
48860;DHT22;34679;51.436;-2.518;2022-08-26T10:08:36;26.10;96.30
48860;DHT22;34679;51.436;-2.518;2022-08-26T10:11:21;26.70;96.30
48860;DHT22;34679;51.436;-2.518;2022-08-26T10:17:02;27.80;95.20
48860;DHT22;34679;51.436;-2.518;2022-08-26T10:19:46;27.40;95.20
48860;DHT22;34679;51.436;-2.518;2022-08-26T10:22:19;26.70;95.70
48860;DHT22;34679;51.436;-2.518;2022-08-26T10:24:53;25.60;96.90
48860;DHT22;34679;51.436;-2.518;2022-08-26T10:27:38;26.00;96.90
48860;DHT22;34679;51.436;-2.518;2022-08-26T10:30:17;25.70;96.50
48860;DHT22;34679;51.436;-2.518;2022-08-26T10:33:06;25.80;97.20
48860;DHT22;34679;51.436;-2.518;2022-08-26T10:35:34;25.60;96.70
48860;DHT22;34679;51.436;-2.518;2022-08-26T10:38:06;25.10;97.00
48860;DHT22;34679;51.436;-2.518;2022-08-26T10:41:10;24.80;97.80
48860;DHT22;34679;51.436;-2.518;2022-08-26T10:43:44;24.10;98.00
48860;DHT22;34679;51.436;-2.518;2022-08-26T10:46:18;24.40;98.40
48860;DHT22;34679;51.436;-2.518;2022-08-26T10:48:46;24.60;97.90
48860;DHT22;34679;51.436;-2.518;2022-08-26T10:51:15;24.70;98.10
48860;DHT22;34679;51.436;-2.518;2022-08-26T10:53:56;25.10;97.70
48860;DHT22;34679;51.436;-2.518;2022-08-26T11:05:20;24.90;98.30
48860;DHT22;34679;51.436;-2.518;2022-08-26T11:07:51;25.40;97.80
48860;DHT22;34679;51.436;-2.518;2022-08-26T11:13:01;25.40;98.20
48860;DHT22;34679;51.436;-2.518;2022-08-26T11:18:05;25.30;98.20
48860;DHT22;34679;51.436;-2.518;2022-08-26T11:28:49;25.90;97.90
48860;DHT22;34679;51.436;-2.518;2022-08-26T11:34:06;25.80;97.90
48860;DHT22;34679;51.436;-2.518;2022-08-26T11:39:41;25.40;98.20
48860;DHT22;34679;51.436;-2.518;2022-08-26T11:42:39;25.40;98.20
48860;DHT22;34679;51.436;-2.518;2022-08-26T11:45:24;24.30;99.30
48860;DHT22;34679;51.436;-2.518;2022-08-26T11:47:52;24.30;99.30
48860;DHT22;34679;51.436;-2.518;2022-08-26T11:50:26;24.10;99.70
48860;DHT22;34679;51.436;-2.518;2022-08-26T11:52:56;23.20;99.90
48860;DHT22;34679;51.436;-2.518;2022-08-26T11:55:27;23.10;99.90
48860;DHT22;34679;51.436;-2.518;2022-08-26T11:57:55;23.20;99.90
48860;DHT22;34679;51.436;-2.518;2022-08-26T12:00:28;23.40;99.90
48860;DHT22;34679;51.436;-2.518;2022-08-26T12:02:55;23.40;99.90
48860;DHT22;34679;51.436;-2.518;2022-08-26T12:05:26;23.70;99.90
48860;DHT22;34679;51.436;-2.518;2022-08-26T12:07:53;24.00;99.90
48860;DHT22;34679;51.436;-2.518;2022-08-26T12:10:46;23.70;99.90
48860;DHT22;34679;51.436;-2.518;2022-08-26T12:13:24;23.90;99.90
48860;DHT22;34679;51.436;-2.518;2022-08-26T12:15:58;23.90;99.90
48860;DHT22;34679;51.436;-2.518;2022-08-26T12:18:28;24.30;99.90
48860;DHT22;34679;51.436;-2.518;2022-08-26T12:20:55;24.10;99.90
48860;DHT22;34679;51.436;-2.518;2022-08-26T12:23:35;23.60;99.90
48860;DHT22;34679;51.436;-2.518;2022-08-26T12:29:07;23.70;99.90
48860;DHT22;34679;51.436;-2.518;2022-08-26T12:31:41;23.30;99.90
48860;DHT22;34679;51.436;-2.518;2022-08-26T12:34:10;23.30;99.90
48860;DHT22;34679;51.436;-2.518;2022-08-26T12:37:02;23.50;99.90
48860;DHT22;34679;51.436;-2.518;2022-08-26T12:39:29;23.50;99.90
48860;DHT22;34679;51.436;-2.518;2022-08-26T12:42:02;23.60;99.90
48860;DHT22;34679;51.436;-2.518;2022-08-26T12:44:39;23.90;99.90
48860;DHT22;34679;51.436;-2.518;2022-08-26T12:49:33;23.80;99.90
48860;DHT22;34679;51.436;-2.518;2022-08-26T12:51:59;23.90;99.90
48860;DHT22;34679;51.436;-2.518;2022-08-26T12:54:25;24.00;99.90
48860;DHT22;34679;51.436;-2.518;2022-08-26T12:57:12;24.00;99.90
48860;DHT22;34679;51.436;-2.518;2022-08-26T12:59:38;24.30;99.90
48860;DHT22;34679;51.436;-2.518;2022-08-26T13:02:04;24.50;99.90
48860;DHT22;34679;51.436;-2.518;2022-08-26T13:04:42;24.30;99.90
48860;DHT22;34679;51.436;-2.518;2022-08-26T13:07:25;23.90;99.90
48860;DHT22;34679;51.436;-2.518;2022-08-26T13:09:53;23.60;99.90
48860;DHT22;34679;51.436;-2.518;2022-08-26T13:12:28;23.70;99.90
48860;DHT22;34679;51.436;-2.518;2022-08-26T13:14:54;23.60;99.90
48860;DHT22;34679;51.436;-2.518;2022-08-26T13:17:20;23.50;99.90
48860;DHT22;34679;51.436;-2.518;2022-08-26T13:19:47;23.30;99.90
48860;DHT22;34679;51.436;-2.518;2022-08-26T13:22:14;23.00;99.90
48860;DHT22;34679;51.436;-2.518;2022-08-26T13:24:44;22.50;99.90
48860;DHT22;34679;51.436;-2.518;2022-08-26T13:27:13;22.50;99.90
48860;DHT22;34679;51.436;-2.518;2022-08-26T13:29:39;22.50;99.90
48860;DHT22;34679;51.436;-2.518;2022-08-26T13:32:06;22.40;99.90
48860;DHT22;34679;51.436;-2.518;2022-08-26T13:34:34;22.30;99.90
48860;DHT22;34679;51.436;-2.518;2022-08-26T13:37:01;22.30;99.90
48860;DHT22;34679;51.436;-2.518;2022-08-26T13:39:27;22.20;99.90
48860;DHT22;34679;51.436;-2.518;2022-08-26T13:41:53;21.90;99.90
48860;DHT22;34679;51.436;-2.518;2022-08-26T13:44:19;21.90;99.90
48860;DHT22;34679;51.436;-2.518;2022-08-26T13:46:46;21.90;99.90
48860;DHT22;34679;51.436;-2.518;2022-08-26T13:49:11;22.10;99.90
48860;DHT22;34679;51.436;-2.518;2022-08-26T13:51:38;22.30;99.90
48860;DHT22;34679;51.436;-2.518;2022-08-26T13:54:04;22.30;99.90
48860;DHT22;34679;51.436;-2.518;2022-08-26T13:56:31;22.00;99.90
48860;DHT22;34679;51.436;-2.518;2022-08-26T13:58:57;22.10;99.90
48860;DHT22;34679;51.436;-2.518;2022-08-26T14:01:24;22.10;99.90
48860;DHT22;34679;51.436;-2.518;2022-08-26T14:03:51;22.20;99.90
48860;DHT22;34679;51.436;-2.518;2022-08-26T14:06:17;22.40;99.90
48860;DHT22;34679;51.436;-2.518;2022-08-26T14:08:43;22.50;99.90
48860;DHT22;34679;51.436;-2.518;2022-08-26T14:11:09;22.60;99.90
48860;DHT22;34679;51.436;-2.518;2022-08-26T14:13:35;22.50;99.90
48860;DHT22;34679;51.436;-2.518;2022-08-26T14:16:03;22.40;99.90
48860;DHT22;34679;51.436;-2.518;2022-08-26T14:18:33;22.50;99.90
48860;DHT22;34679;51.436;-2.518;2022-08-26T14:20:59;22.40;99.90
48860;DHT22;34679;51.436;-2.518;2022-08-26T14:23:25;22.30;99.90
48860;DHT22;34679;51.436;-2.518;2022-08-26T14:25:51;22.30;99.90
48860;DHT22;34679;51.436;-2.518;2022-08-26T14:28:17;22.30;99.90
48860;DHT22;34679;51.436;-2.518;2022-08-26T14:30:46;22.40;99.90
48860;DHT22;34679;51.436;-2.518;2022-08-26T14:33:22;22.50;99.90
48860;DHT22;34679;51.436;-2.518;2022-08-26T14:35:48;22.60;99.90
48860;DHT22;34679;51.436;-2.518;2022-08-26T14:38:14;22.90;99.90
48860;DHT22;34679;51.436;-2.518;2022-08-26T14:40:40;23.00;99.90
48860;DHT22;34679;51.436;-2.518;2022-08-26T14:43:10;23.20;99.90
48860;DHT22;34679;51.436;-2.518;2022-08-26T14:45:40;23.30;99.90
48860;DHT22;34679;51.436;-2.518;2022-08-26T14:48:06;23.30;99.90
48860;DHT22;34679;51.436;-2.518;2022-08-26T14:50:33;23.10;99.90
48860;DHT22;34679;51.436;-2.518;2022-08-26T14:52:58;23.40;99.90
48860;DHT22;34679;51.436;-2.518;2022-08-26T14:55:42;23.30;99.90
48860;DHT22;34679;51.436;-2.518;2022-08-26T14:58:09;23.40;99.90
48860;DHT22;34679;51.436;-2.518;2022-08-26T15:00:35;23.50;99.90
48860;DHT22;34679;51.436;-2.518;2022-08-26T15:03:03;23.60;99.90
48860;DHT22;34679;51.436;-2.518;2022-08-26T15:05:28;23.50;99.90
48860;DHT22;34679;51.436;-2.518;2022-08-26T15:07:54;23.50;99.90
48860;DHT22;34679;51.436;-2.518;2022-08-26T15:10:20;23.60;99.90
48860;DHT22;34679;51.436;-2.518;2022-08-26T15:12:46;23.90;99.90
48860;DHT22;34679;51.436;-2.518;2022-08-26T15:15:13;24.10;99.90
48860;DHT22;34679;51.436;-2.518;2022-08-26T15:17:39;24.20;99.90
48860;DHT22;34679;51.436;-2.518;2022-08-26T15:20:06;24.30;99.90
48860;DHT22;34679;51.436;-2.518;2022-08-26T15:22:36;24.30;99.90
48860;DHT22;34679;51.436;-2.518;2022-08-26T15:25:04;24.40;99.90
48860;DHT22;34679;51.436;-2.518;2022-08-26T15:27:30;24.50;99.90
48860;DHT22;34679;51.436;-2.518;2022-08-26T15:29:55;24.50;99.90
48860;DHT22;34679;51.436;-2.518;2022-08-26T15:32:22;24.30;99.90
48860;DHT22;34679;51.436;-2.518;2022-08-26T15:34:47;24.20;99.90
48860;DHT22;34679;51.436;-2.518;2022-08-26T15:37:15;24.00;99.90
48860;DHT22;34679;51.436;-2.518;2022-08-26T15:39:41;23.80;99.90
48860;DHT22;34679;51.436;-2.518;2022-08-26T15:42:07;23.60;99.90
48860;DHT22;34679;51.436;-2.518;2022-08-26T15:44:32;23.50;99.90
48860;DHT22;34679;51.436;-2.518;2022-08-26T15:46:58;23.30;99.90
48860;DHT22;34679;51.436;-2.518;2022-08-26T15:49:25;23.20;99.90
48860;DHT22;34679;51.436;-2.518;2022-08-26T15:51:51;23.20;99.90
48860;DHT22;34679;51.436;-2.518;2022-08-26T15:54:20;23.40;99.90
48860;DHT22;34679;51.436;-2.518;2022-08-26T15:56:47;23.40;99.90
48860;DHT22;34679;51.436;-2.518;2022-08-26T15:59:15;23.40;99.90
48860;DHT22;34679;51.436;-2.518;2022-08-26T16:01:41;23.20;99.90
48860;DHT22;34679;51.436;-2.518;2022-08-26T16:04:07;23.20;99.90
48860;DHT22;34679;51.436;-2.518;2022-08-26T16:06:35;23.10;99.90
48860;DHT22;34679;51.436;-2.518;2022-08-26T16:09:03;23.10;99.90
48860;DHT22;34679;51.436;-2.518;2022-08-26T16:11:28;23.10;99.90
48860;DHT22;34679;51.436;-2.518;2022-08-26T16:13:54;23.10;99.90
48860;DHT22;34679;51.436;-2.518;2022-08-26T16:16:20;23.00;99.90
48860;DHT22;34679;51.436;-2.518;2022-08-26T16:18:46;23.00;99.90
48860;DHT22;34679;51.436;-2.518;2022-08-26T16:21:22;22.90;99.90
48860;DHT22;34679;51.436;-2.518;2022-08-26T16:23:49;22.80;99.90
48860;DHT22;34679;51.436;-2.518;2022-08-26T16:26:27;22.80;99.90
48860;DHT22;34679;51.436;-2.518;2022-08-26T16:28:53;22.80;99.90
48860;DHT22;34679;51.436;-2.518;2022-08-26T16:31:20;22.70;99.90
48860;DHT22;34679;51.436;-2.518;2022-08-26T16:33:46;22.80;99.90
48860;DHT22;34679;51.436;-2.518;2022-08-26T16:36:13;22.70;99.90
48860;DHT22;34679;51.436;-2.518;2022-08-26T16:38:39;22.70;99.90
48860;DHT22;34679;51.436;-2.518;2022-08-26T16:41:07;22.70;99.90
48860;DHT22;34679;51.436;-2.518;2022-08-26T16:43:33;22.70;99.90
48860;DHT22;34679;51.436;-2.518;2022-08-26T16:45:59;22.50;99.90
48860;DHT22;34679;51.436;-2.518;2022-08-26T16:48:25;22.50;99.90
48860;DHT22;34679;51.436;-2.518;2022-08-26T16:50:51;22.40;99.90
48860;DHT22;34679;51.436;-2.518;2022-08-26T16:53:20;22.30;99.90
48860;DHT22;34679;51.436;-2.518;2022-08-26T16:55:46;22.30;99.90
48860;DHT22;34679;51.436;-2.518;2022-08-26T16:58:12;22.30;99.90
48860;DHT22;34679;51.436;-2.518;2022-08-26T17:00:39;22.30;99.90
48860;DHT22;34679;51.436;-2.518;2022-08-26T17:03:05;22.20;99.90
48860;DHT22;34679;51.436;-2.518;2022-08-26T17:05:31;22.30;99.90
48860;DHT22;34679;51.436;-2.518;2022-08-26T17:07:58;22.30;99.90
48860;DHT22;34679;51.436;-2.518;2022-08-26T17:10:26;22.40;99.90
48860;DHT22;34679;51.436;-2.518;2022-08-26T17:12:52;22.50;99.90
48860;DHT22;34679;51.436;-2.518;2022-08-26T17:15:18;22.60;99.90
48860;DHT22;34679;51.436;-2.518;2022-08-26T17:17:44;22.60;99.90
48860;DHT22;34679;51.436;-2.518;2022-08-26T17:20:13;22.60;99.90
48860;DHT22;34679;51.436;-2.518;2022-08-26T17:22:41;22.60;99.90
48860;DHT22;34679;51.436;-2.518;2022-08-26T17:25:17;22.60;99.90
48860;DHT22;34679;51.436;-2.518;2022-08-26T17:27:44;22.60;99.90
48860;DHT22;34679;51.436;-2.518;2022-08-26T17:30:11;22.50;99.90
48860;DHT22;34679;51.436;-2.518;2022-08-26T17:32:37;22.40;99.90
48860;DHT22;34679;51.436;-2.518;2022-08-26T17:35:04;22.30;99.90
48860;DHT22;34679;51.436;-2.518;2022-08-26T17:37:30;22.20;99.90
48860;DHT22;34679;51.436;-2.518;2022-08-26T17:39:56;22.20;99.90
48860;DHT22;34679;51.436;-2.518;2022-08-26T17:42:22;22.10;99.90
48860;DHT22;34679;51.436;-2.518;2022-08-26T17:44:48;22.10;99.90
48860;DHT22;34679;51.436;-2.518;2022-08-26T17:47:15;22.10;99.90
48860;DHT22;34679;51.436;-2.518;2022-08-26T17:49:41;22.00;99.90
48860;DHT22;34679;51.436;-2.518;2022-08-26T17:52:07;22.10;99.90
48860;DHT22;34679;51.436;-2.518;2022-08-26T17:54:32;22.00;99.90
48860;DHT22;34679;51.436;-2.518;2022-08-26T17:56:58;22.00;99.90
48860;DHT22;34679;51.436;-2.518;2022-08-26T17:59:24;22.00;99.90
48860;DHT22;34679;51.436;-2.518;2022-08-26T18:01:52;22.00;99.90
48860;DHT22;34679;51.436;-2.518;2022-08-26T18:04:18;22.00;99.90
48860;DHT22;34679;51.436;-2.518;2022-08-26T18:06:44;22.00;99.90
48860;DHT22;34679;51.436;-2.518;2022-08-26T18:09:10;21.90;99.90
48860;DHT22;34679;51.436;-2.518;2022-08-26T18:11:36;21.80;99.90
48860;DHT22;34679;51.436;-2.518;2022-08-26T18:14:02;21.80;99.90
48860;DHT22;34679;51.436;-2.518;2022-08-26T18:16:29;21.70;99.90
48860;DHT22;34679;51.436;-2.518;2022-08-26T18:18:58;21.60;99.90
48860;DHT22;34679;51.436;-2.518;2022-08-26T18:21:26;21.60;99.90
48860;DHT22;34679;51.436;-2.518;2022-08-26T18:23:52;21.50;99.90
48860;DHT22;34679;51.436;-2.518;2022-08-26T18:26:27;21.40;99.90
48860;DHT22;34679;51.436;-2.518;2022-08-26T18:28:53;21.40;99.90
48860;DHT22;34679;51.436;-2.518;2022-08-26T18:31:19;21.30;99.90
48860;DHT22;34679;51.436;-2.518;2022-08-26T18:33:46;21.30;99.90
48860;DHT22;34679;51.436;-2.518;2022-08-26T18:36:20;21.10;99.90
48860;DHT22;34679;51.436;-2.518;2022-08-26T18:38:47;21.10;99.90
48860;DHT22;34679;51.436;-2.518;2022-08-26T18:41:14;20.90;99.90
48860;DHT22;34679;51.436;-2.518;2022-08-26T18:43:40;20.80;99.90
48860;DHT22;34679;51.436;-2.518;2022-08-26T18:46:07;20.70;99.90
48860;DHT22;34679;51.436;-2.518;2022-08-26T18:48:33;20.60;99.90
48860;DHT22;34679;51.436;-2.518;2022-08-26T18:51:00;20.50;99.90
48860;DHT22;34679;51.436;-2.518;2022-08-26T18:53:26;20.40;99.90
48860;DHT22;34679;51.436;-2.518;2022-08-26T18:55:52;20.30;99.90
48860;DHT22;34679;51.436;-2.518;2022-08-26T18:58:18;20.10;99.90
48860;DHT22;34679;51.436;-2.518;2022-08-26T19:00:44;20.10;99.90
48860;DHT22;34679;51.436;-2.518;2022-08-26T19:03:09;20.00;99.90
48860;DHT22;34679;51.436;-2.518;2022-08-26T19:05:38;19.80;99.90
48860;DHT22;34679;51.436;-2.518;2022-08-26T19:08:06;19.70;99.90
48860;DHT22;34679;51.436;-2.518;2022-08-26T19:10:36;19.90;99.90
48860;DHT22;34679;51.436;-2.518;2022-08-26T19:13:06;19.80;99.90
48860;DHT22;34679;51.436;-2.518;2022-08-26T19:15:40;19.70;99.90
48860;DHT22;34679;51.436;-2.518;2022-08-26T19:18:07;19.70;99.90
48860;DHT22;34679;51.436;-2.518;2022-08-26T19:20:36;19.70;99.90
48860;DHT22;34679;51.436;-2.518;2022-08-26T19:23:02;19.60;99.90
48860;DHT22;34679;51.436;-2.518;2022-08-26T19:25:28;19.60;99.90
48860;DHT22;34679;51.436;-2.518;2022-08-26T19:27:54;19.50;99.90
48860;DHT22;34679;51.436;-2.518;2022-08-26T19:30:19;19.30;99.90
48860;DHT22;34679;51.436;-2.518;2022-08-26T19:32:45;19.30;99.90
48860;DHT22;34679;51.436;-2.518;2022-08-26T19:35:11;19.20;99.90
48860;DHT22;34679;51.436;-2.518;2022-08-26T19:37:36;19.20;99.90
48860;DHT22;34679;51.436;-2.518;2022-08-26T19:40:03;19.10;99.90
48860;DHT22;34679;51.436;-2.518;2022-08-26T19:42:29;19.00;99.90
48860;DHT22;34679;51.436;-2.518;2022-08-26T19:44:55;18.90;99.90
48860;DHT22;34679;51.436;-2.518;2022-08-26T19:47:33;18.80;99.90
48860;DHT22;34679;51.436;-2.518;2022-08-26T19:50:05;18.80;99.90
48860;DHT22;34679;51.436;-2.518;2022-08-26T19:52:31;18.80;99.90
48860;DHT22;34679;51.436;-2.518;2022-08-26T19:54:57;18.70;99.90
48860;DHT22;34679;51.436;-2.518;2022-08-26T19:57:23;18.70;99.90